createdAt,value
2018-01-17T00:00:49.314Z,11.50
2018-01-17T00:01:49.318Z,11.80
2018-01-17T00:02:49.314Z,12.10
2018-01-17T00:03:49.312Z,11.20
2018-01-17T00:04:49.319Z,11.70
2018-01-17T00:05:49.331Z,11.40
2018-01-17T00:06:49.317Z,11.90
2018-01-17T00:07:49.315Z,12.70
2018-01-17T00:08:49.324Z,12.10
2018-01-17T00:09:49.327Z,12.50
2018-01-17T00:10:49.322Z,12.20
2018-01-17T00:11:49.321Z,12.90
2018-01-17T00:12:49.330Z,12.80
2018-01-17T00:13:49.326Z,12.40
2018-01-17T00:14:49.325Z,13.40
2018-01-17T00:15:49.324Z,13.30
2018-01-17T00:16:49.331Z,13.40
2018-01-17T00:17:49.329Z,14.30
2018-01-17T00:18:49.325Z,13.90
2018-01-17T00:19:49.325Z,14.60
2018-01-17T00:20:49.331Z,14.90
2018-01-17T00:21:49.332Z,14.20
2018-01-17T00:22:49.338Z,14.60
2018-01-17T00:23:49.343Z,14.90
2018-01-17T00:24:50.260Z,14.60
2018-01-17T00:25:49.336Z,14.40
2018-01-17T00:26:49.335Z,14.50
2018-01-17T00:27:49.335Z,15.70
2018-01-17T00:28:49.335Z,14.50
2018-01-17T00:29:49.338Z,14.60
2018-01-17T00:30:49.337Z,14.00
2018-01-17T00:31:49.344Z,14.80
2018-01-17T00:32:49.353Z,14.10
2018-01-17T00:33:49.338Z,14.40
2018-01-17T00:34:49.334Z,13.70
2018-01-17T00:35:49.338Z,13.60
2018-01-17T00:36:49.344Z,14.80
2018-01-17T00:37:49.345Z,14.80
2018-01-17T00:38:49.356Z,15.00
2018-01-17T00:39:49.341Z,13.50
2018-01-17T00:40:49.354Z,13.90
2018-01-17T00:41:49.348Z,13.40
2018-01-17T00:42:49.348Z,12.80
2018-01-17T00:43:49.346Z,13.10
2018-01-17T00:44:49.355Z,13.60
2018-01-17T00:45:49.348Z,12.90
2018-01-17T00:46:49.353Z,12.30
2018-01-17T00:47:49.356Z,12.30
2018-01-17T00:48:49.352Z,12.60
2018-01-17T00:49:49.349Z,12.00
2018-01-17T00:50:49.359Z,12.90
2018-01-17T00:51:49.352Z,12.80
2018-01-17T00:52:49.353Z,12.60
2018-01-17T00:53:49.351Z,11.60
2018-01-17T00:54:49.357Z,13.10
2018-01-17T00:55:49.354Z,12.30
2018-01-17T00:56:49.357Z,11.90
2018-01-17T00:57:49.363Z,12.10
2018-01-17T00:58:49.365Z,11.60
2018-01-17T00:59:49.362Z,11.10
2018-01-17T01:00:49.363Z,11.70
2018-01-17T01:01:49.360Z,11.90
2018-01-17T01:02:49.367Z,11.10
2018-01-17T01:03:49.360Z,10.70
2018-01-17T01:04:49.365Z,11.30
2018-01-17T01:05:49.368Z,10.70
2018-01-17T01:06:49.413Z,10.20
2018-01-17T01:07:49.368Z,10.40
2018-01-17T01:08:49.369Z,10.40
2018-01-17T01:09:49.366Z,11.10
2018-01-17T01:10:49.362Z,10.40
2018-01-17T01:11:49.364Z,10.30
2018-01-17T01:12:49.376Z,9.50
2018-01-17T01:13:49.369Z,10.10
2018-01-17T01:14:49.367Z,9.30
2018-01-17T01:15:49.374Z,9.20
2018-01-17T01:16:49.383Z,8.70
2018-01-17T01:17:49.383Z,9.30
2018-01-17T01:18:49.372Z,9.20
2018-01-17T01:19:49.377Z,9.10
2018-01-17T01:20:49.380Z,8.60
2018-01-17T01:21:49.375Z,8.50
2018-01-17T01:22:49.378Z,9.10
2018-01-17T01:23:49.381Z,8.60
2018-01-17T01:24:49.380Z,9.00
2018-01-17T01:25:49.380Z,8.70
2018-01-17T01:26:49.389Z,8.50
2018-01-17T01:27:49.376Z,8.60
2018-01-17T01:28:49.384Z,9.00
2018-01-17T01:29:49.383Z,8.30
2018-01-17T01:30:49.382Z,8.50
2018-01-17T01:31:49.390Z,8.70
2018-01-17T01:32:49.387Z,8.80
2018-01-17T01:33:49.393Z,8.20
2018-01-17T01:34:49.393Z,8.70
2018-01-17T01:35:49.392Z,8.10
2018-01-17T01:36:49.391Z,8.20
2018-01-17T01:37:49.393Z,8.60
2018-01-17T01:38:49.392Z,8.80
2018-01-17T01:39:49.398Z,8.50
2018-01-17T01:40:49.396Z,7.80
2018-01-17T01:41:49.399Z,8.20
2018-01-17T01:42:49.399Z,8.00
2018-01-17T01:43:49.404Z,7.70
2018-01-17T01:44:49.401Z,7.20
2018-01-17T01:45:49.404Z,7.80
2018-01-17T01:46:49.398Z,7.50
2018-01-17T01:47:49.399Z,8.20
2018-01-17T01:48:49.403Z,7.00
2018-01-17T01:49:49.409Z,7.50
2018-01-17T01:50:49.406Z,7.20
2018-01-17T01:51:49.412Z,7.90
2018-01-17T01:52:49.412Z,7.60
2018-01-17T01:53:49.413Z,6.70
2018-01-17T01:54:49.431Z,6.00
2018-01-17T01:55:49.429Z,6.00
2018-01-17T01:56:49.417Z,6.80
2018-01-17T01:57:49.414Z,6.10
2018-01-17T01:58:49.419Z,6.40
2018-01-17T01:59:49.419Z,6.70
2018-01-17T02:00:49.418Z,7.20
2018-01-17T02:01:49.422Z,6.90
2018-01-17T02:02:49.422Z,7.70
2018-01-17T02:03:49.423Z,7.40
2018-01-17T02:04:49.426Z,7.90
2018-01-17T02:05:49.424Z,8.40
2018-01-17T02:06:49.436Z,8.40
2018-01-17T02:07:49.423Z,8.30
2018-01-17T02:08:49.425Z,8.60
2018-01-17T02:09:49.425Z,8.90
2018-01-17T02:10:49.427Z,8.00
2018-01-17T02:11:49.430Z,8.50
2018-01-17T02:12:49.434Z,8.60
2018-01-17T02:13:49.428Z,8.50
2018-01-17T02:14:49.431Z,7.60
2018-01-17T02:15:49.433Z,7.60
2018-01-17T02:16:49.433Z,7.10
2018-01-17T02:17:49.432Z,7.00
2018-01-17T02:18:49.437Z,6.90
2018-01-17T02:19:49.437Z,6.60
2018-01-17T02:20:49.434Z,7.30
2018-01-17T02:21:49.435Z,7.30
2018-01-17T02:22:49.438Z,7.50
2018-01-17T02:23:49.433Z,7.90
2018-01-17T02:24:49.437Z,7.80
2018-01-17T02:25:49.441Z,7.90
2018-01-17T02:26:49.438Z,8.10
2018-01-17T02:27:49.436Z,8.10
2018-01-17T02:28:49.451Z,8.60
2018-01-17T02:29:49.451Z,8.50
2018-01-17T02:30:49.450Z,8.10
2018-01-17T02:31:49.447Z,7.40
2018-01-17T02:32:49.448Z,7.60
2018-01-17T02:33:49.450Z,7.30
2018-01-17T02:34:49.445Z,7.50
2018-01-17T02:35:49.452Z,7.10
2018-01-17T02:36:49.450Z,7.40
2018-01-17T02:37:49.452Z,7.50
2018-01-17T02:38:49.449Z,6.60
2018-01-17T02:39:49.449Z,7.20
2018-01-17T02:40:49.457Z,7.40
2018-01-17T02:41:49.454Z,6.40
2018-01-17T02:42:49.451Z,7.00
2018-01-17T02:43:49.454Z,7.30
2018-01-17T02:44:49.464Z,7.00
2018-01-17T02:45:49.457Z,8.00
2018-01-17T02:46:49.456Z,8.20
2018-01-17T02:47:49.456Z,8.00
2018-01-17T02:48:49.470Z,9.20
2018-01-17T02:49:49.470Z,9.30
2018-01-17T02:50:49.457Z,9.40
2018-01-17T02:51:49.461Z,9.00
2018-01-17T02:52:49.465Z,9.70
2018-01-17T02:53:49.467Z,9.80
2018-01-17T02:54:49.461Z,8.60
2018-01-17T02:55:49.468Z,9.40
2018-01-17T02:56:49.462Z,9.60
2018-01-17T02:57:49.466Z,9.00
2018-01-17T02:58:49.468Z,9.70
2018-01-17T02:59:49.467Z,9.90
2018-01-17T03:00:49.462Z,10.10
2018-01-17T03:01:49.491Z,9.70
2018-01-17T03:02:49.468Z,9.90
2018-01-17T03:03:49.469Z,9.50
2018-01-17T03:04:49.473Z,9.70
2018-01-17T03:05:49.478Z,10.00
2018-01-17T03:06:49.478Z,9.10
2018-01-17T03:07:49.471Z,9.10
2018-01-17T03:08:49.474Z,9.10
2018-01-17T03:09:49.477Z,8.80
2018-01-17T03:10:49.471Z,9.40
2018-01-17T03:11:49.474Z,9.80
2018-01-17T03:12:49.478Z,8.50
2018-01-17T03:13:49.480Z,9.10
2018-01-17T03:14:49.475Z,9.30
2018-01-17T03:15:49.475Z,9.30
2018-01-17T03:16:49.481Z,9.40
2018-01-17T03:17:49.479Z,9.90
2018-01-17T03:18:49.475Z,9.70
2018-01-17T03:19:49.477Z,9.40
2018-01-17T03:20:49.483Z,9.20
2018-01-17T03:21:49.480Z,9.00
2018-01-17T03:22:49.484Z,8.10
2018-01-17T03:23:49.482Z,8.20
2018-01-17T03:24:49.485Z,8.20
2018-01-17T03:25:49.483Z,8.40
2018-01-17T03:26:49.486Z,7.80
2018-01-17T03:27:49.481Z,8.50
2018-01-17T03:28:49.493Z,8.20
2018-01-17T03:29:49.484Z,7.80
2018-01-17T03:30:49.487Z,26.10
2018-01-17T03:31:49.485Z,7.90
2018-01-17T03:32:49.491Z,7.50
2018-01-17T03:33:49.487Z,8.20
2018-01-17T03:34:49.487Z,7.70
2018-01-17T03:35:49.488Z,7.90
2018-01-17T03:36:49.488Z,7.70
2018-01-17T03:37:49.484Z,7.50
2018-01-17T03:38:50.292Z,7.90
2018-01-17T03:39:49.493Z,7.30
2018-01-17T03:40:49.490Z,7.80
2018-01-17T03:41:49.498Z,7.80
2018-01-17T03:42:49.496Z,7.70
2018-01-17T03:43:49.496Z,7.40
2018-01-17T03:44:49.494Z,7.20
2018-01-17T03:45:49.498Z,7.80
2018-01-17T03:46:49.497Z,7.40
2018-01-17T03:47:49.498Z,7.30
2018-01-17T03:48:49.496Z,7.30
2018-01-17T03:49:49.498Z,7.80
2018-01-17T03:50:49.496Z,7.70
2018-01-17T03:51:49.495Z,7.70
2018-01-17T03:52:49.500Z,8.00
2018-01-17T03:53:49.500Z,7.80
2018-01-17T03:54:49.497Z,7.90
2018-01-17T03:55:49.501Z,8.30
2018-01-17T03:56:49.504Z,8.10
2018-01-17T03:57:49.509Z,7.90
2018-01-17T03:58:49.509Z,8.30
2018-01-17T03:59:49.502Z,8.10
2018-01-17T04:00:49.505Z,8.20
2018-01-17T04:01:49.506Z,8.70
2018-01-17T04:02:49.500Z,8.20
2018-01-17T04:03:49.502Z,8.10
2018-01-17T04:04:49.506Z,9.20
2018-01-17T04:05:49.508Z,8.30
2018-01-17T04:06:49.503Z,9.10
2018-01-17T04:07:50.298Z,8.70
2018-01-17T04:08:49.517Z,8.80
2018-01-17T04:09:49.506Z,8.40
2018-01-17T04:10:49.508Z,8.50
2018-01-17T04:11:49.510Z,9.20
2018-01-17T04:12:49.510Z,9.00
2018-01-17T04:13:49.508Z,8.90
2018-01-17T04:14:49.521Z,9.30
2018-01-17T04:15:49.517Z,9.50
2018-01-17T04:16:49.512Z,10.10
2018-01-17T04:17:49.514Z,10.00
2018-01-17T04:18:49.511Z,9.50
2018-01-17T04:19:49.509Z,9.40
2018-01-17T04:20:49.518Z,9.20
2018-01-17T04:21:49.516Z,9.20
2018-01-17T04:22:49.509Z,9.30
2018-01-17T04:23:49.515Z,10.10
2018-01-17T04:24:49.516Z,10.30
2018-01-17T04:25:49.522Z,9.90
2018-01-17T04:26:49.510Z,9.60
2018-01-17T04:27:49.517Z,9.10
2018-01-17T04:28:49.515Z,8.90
2018-01-17T04:29:49.519Z,9.60
2018-01-17T04:30:49.521Z,9.80
2018-01-17T04:31:49.534Z,9.70
2018-01-17T04:32:49.522Z,9.80
2018-01-17T04:33:49.520Z,9.30
2018-01-17T04:34:49.517Z,9.80
2018-01-17T04:35:49.516Z,9.20
2018-01-17T04:36:49.521Z,9.40
2018-01-17T04:37:49.519Z,10.60
2018-01-17T04:38:49.520Z,9.80
2018-01-17T04:39:49.518Z,9.70
2018-01-17T04:40:49.529Z,9.80
2018-01-17T04:41:49.524Z,9.60
2018-01-17T04:42:49.520Z,9.40
2018-01-17T04:43:49.516Z,9.10
2018-01-17T04:44:49.524Z,8.70
2018-01-17T04:45:49.524Z,9.50
2018-01-17T04:46:49.522Z,9.60
2018-01-17T04:47:49.530Z,9.20
2018-01-17T04:48:49.523Z,9.00
2018-01-17T04:49:49.532Z,9.60
2018-01-17T04:50:49.522Z,10.00
2018-01-17T04:51:49.527Z,10.20
2018-01-17T04:52:49.520Z,9.80
2018-01-17T04:53:49.528Z,9.50
2018-01-17T04:54:49.524Z,9.70
2018-01-17T04:55:49.529Z,9.30
2018-01-17T04:56:49.525Z,10.00
2018-01-17T04:57:49.527Z,10.00
2018-01-17T04:58:49.528Z,9.80
2018-01-17T04:59:49.532Z,10.60
2018-01-17T05:00:49.524Z,9.40
2018-01-17T05:01:49.522Z,9.30
2018-01-17T05:02:49.534Z,9.60
2018-01-17T05:03:49.530Z,9.70
2018-01-17T05:04:49.541Z,9.70
2018-01-17T05:05:49.532Z,10.10
2018-01-17T05:06:49.530Z,10.10
2018-01-17T05:07:49.529Z,10.50
2018-01-17T05:08:49.553Z,10.20
2018-01-17T05:09:49.536Z,9.90
2018-01-17T05:10:49.529Z,10.30
2018-01-17T05:11:49.532Z,10.10
2018-01-17T05:12:49.534Z,10.10
2018-01-17T05:13:49.534Z,9.90
2018-01-17T05:14:49.537Z,10.50
2018-01-17T05:15:49.544Z,10.00
2018-01-17T05:16:49.532Z,9.60
2018-01-17T05:17:49.533Z,9.60
2018-01-17T05:18:49.531Z,9.60
2018-01-17T05:19:49.533Z,10.30
2018-01-17T05:20:49.539Z,9.00
2018-01-17T05:21:49.535Z,9.60
2018-01-17T05:22:49.535Z,9.50
2018-01-17T05:23:49.537Z,8.90
2018-01-17T05:24:49.532Z,8.80
2018-01-17T05:25:49.532Z,9.00
2018-01-17T05:26:49.534Z,8.80
2018-01-17T05:27:49.540Z,8.70
2018-01-17T05:28:49.533Z,9.10
2018-01-17T05:29:49.542Z,9.40
2018-01-17T05:30:49.540Z,8.90
2018-01-17T05:31:49.537Z,9.00
2018-01-17T05:32:49.531Z,8.80
2018-01-17T05:33:49.537Z,8.50
2018-01-17T05:34:49.531Z,8.50
2018-01-17T05:35:49.536Z,8.70
2018-01-17T05:36:49.539Z,7.90
2018-01-17T05:37:49.538Z,8.90
2018-01-17T05:38:49.541Z,8.50
2018-01-17T05:39:49.535Z,8.10
2018-01-17T05:40:49.540Z,8.20
2018-01-17T05:41:49.534Z,8.10
2018-01-17T05:42:49.576Z,8.00
2018-01-17T05:43:49.536Z,7.90
2018-01-17T05:44:49.537Z,8.00
2018-01-17T05:45:49.535Z,7.60
2018-01-17T05:46:49.540Z,7.20
2018-01-17T05:47:49.537Z,7.50
2018-01-17T05:48:49.540Z,6.70
2018-01-17T05:49:50.321Z,7.00
2018-01-17T05:50:49.539Z,7.40
2018-01-17T05:51:49.539Z,7.20
2018-01-17T05:52:49.541Z,7.60
2018-01-17T05:53:49.541Z,7.60
2018-01-17T05:54:49.540Z,7.10
2018-01-17T05:55:49.598Z,7.60
2018-01-17T05:56:51.020Z,6.80
2018-01-17T05:57:50.053Z,7.50
2018-01-17T05:58:49.544Z,7.20
2018-01-17T05:59:49.539Z,7.20
2018-01-17T06:00:49.543Z,8.00
2018-01-17T06:01:49.544Z,6.80
2018-01-17T06:02:49.539Z,7.30
2018-01-17T06:03:49.543Z,7.10
2018-01-17T06:04:49.548Z,7.10
2018-01-17T06:05:49.547Z,6.50
2018-01-17T06:06:49.539Z,7.20
2018-01-17T06:07:49.542Z,7.20
2018-01-17T06:08:49.545Z,6.80
2018-01-17T06:09:49.542Z,7.40
2018-01-17T06:10:49.546Z,6.30
2018-01-17T06:11:49.548Z,6.50
2018-01-17T06:12:49.546Z,7.30
2018-01-17T06:13:49.544Z,6.90
2018-01-17T06:14:49.544Z,6.70
2018-01-17T06:15:49.550Z,6.50
2018-01-17T06:16:49.543Z,6.30
2018-01-17T06:17:49.552Z,6.80
2018-01-17T06:18:49.578Z,6.30
2018-01-17T06:19:49.549Z,6.00
2018-01-17T06:20:49.549Z,6.10
2018-01-17T06:21:49.559Z,6.20
2018-01-17T06:22:49.543Z,6.70
2018-01-17T06:23:49.549Z,6.60
2018-01-17T06:24:49.553Z,5.70
2018-01-17T06:25:49.549Z,9.30
2018-01-17T06:26:49.549Z,8.80
2018-01-17T06:27:49.553Z,6.10
2018-01-17T06:28:49.565Z,5.50
2018-01-17T06:29:49.548Z,5.70
2018-01-17T06:30:49.549Z,5.10
2018-01-17T06:31:49.552Z,5.70
2018-01-17T06:32:49.556Z,5.30
2018-01-17T06:33:49.550Z,5.20
2018-01-17T06:34:49.553Z,5.60
2018-01-17T06:35:49.550Z,5.10
2018-01-17T06:36:49.556Z,5.20
2018-01-17T06:37:49.551Z,5.00
2018-01-17T06:38:49.553Z,5.40
2018-01-17T06:39:49.562Z,4.90
2018-01-17T06:40:49.550Z,5.50
2018-01-17T06:41:49.552Z,4.60
2018-01-17T06:42:49.557Z,4.60
2018-01-17T06:43:49.554Z,4.60
2018-01-17T06:44:49.564Z,4.60
2018-01-17T06:45:49.558Z,4.60
2018-01-17T06:46:49.565Z,4.50
2018-01-17T06:47:49.556Z,4.70
2018-01-17T06:48:49.564Z,4.30
2018-01-17T06:49:49.556Z,4.60
2018-01-17T06:50:49.554Z,4.40
2018-01-17T06:51:49.555Z,4.90
2018-01-17T06:52:49.560Z,4.60
2018-01-17T06:53:49.562Z,4.30
2018-01-17T06:54:49.554Z,4.80
2018-01-17T06:55:49.555Z,4.40
2018-01-17T06:56:49.560Z,4.20
2018-01-17T06:57:49.560Z,4.20
2018-01-17T06:58:49.562Z,4.20
2018-01-17T06:59:49.562Z,4.10
2018-01-17T07:00:49.563Z,4.00
2018-01-17T07:01:49.559Z,4.30
2018-01-17T07:02:49.564Z,4.60
2018-01-17T07:03:49.585Z,4.90
2018-01-17T07:04:49.561Z,4.10
2018-01-17T07:05:49.564Z,4.30
2018-01-17T07:06:49.567Z,3.80
2018-01-17T07:07:49.564Z,4.80
2018-01-17T07:08:49.563Z,4.50
2018-01-17T07:09:49.563Z,4.00
2018-01-17T07:10:49.570Z,4.30
2018-01-17T07:11:50.332Z,4.40
2018-01-17T07:12:49.565Z,4.40
2018-01-17T07:13:49.567Z,4.30
2018-01-17T07:14:49.572Z,4.10
2018-01-17T07:15:49.570Z,4.10
2018-01-17T07:16:49.578Z,3.70
2018-01-17T07:17:49.567Z,4.70
2018-01-17T07:18:49.577Z,4.40
2018-01-17T07:19:49.568Z,4.60
2018-01-17T07:20:49.573Z,3.80
2018-01-17T07:21:49.575Z,4.30
2018-01-17T07:22:49.571Z,4.60
2018-01-17T07:23:49.569Z,4.60
2018-01-17T07:24:49.576Z,4.30
2018-01-17T07:25:49.578Z,4.40
2018-01-17T07:26:49.569Z,4.40
2018-01-17T07:27:49.578Z,4.60
2018-01-17T07:28:49.575Z,4.50
2018-01-17T07:29:49.576Z,4.40
2018-01-17T07:30:49.576Z,4.50
2018-01-17T07:31:49.577Z,4.40
2018-01-17T07:32:49.578Z,4.50
2018-01-17T07:33:49.583Z,4.50
2018-01-17T07:34:49.575Z,4.70
2018-01-17T07:35:49.583Z,4.80
2018-01-17T07:36:49.588Z,4.90
2018-01-17T07:37:49.584Z,4.60
2018-01-17T07:38:49.596Z,4.60
2018-01-17T07:39:49.592Z,4.70
2018-01-17T07:40:49.589Z,4.80
2018-01-17T07:41:49.584Z,4.50
2018-01-17T07:42:49.585Z,4.50
2018-01-17T07:43:49.581Z,4.50
2018-01-17T07:44:49.585Z,4.80
2018-01-17T07:45:49.593Z,5.00
2018-01-17T07:46:49.585Z,5.20
2018-01-17T07:47:49.589Z,5.00
2018-01-17T07:48:49.614Z,4.90
2018-01-17T07:49:49.593Z,5.00
2018-01-17T07:50:49.589Z,5.30
2018-01-17T07:51:49.584Z,4.80
2018-01-17T07:52:49.599Z,5.10
2018-01-17T07:53:49.590Z,5.00
2018-01-17T07:54:49.590Z,4.70
2018-01-17T07:55:49.592Z,5.20
2018-01-17T07:56:49.596Z,5.30
2018-01-17T07:57:49.594Z,5.50
2018-01-17T07:58:49.595Z,4.80
2018-01-17T07:59:49.797Z,5.20
2018-01-17T08:00:49.599Z,5.50
2018-01-17T08:01:49.601Z,5.50
2018-01-17T08:02:49.599Z,5.90
2018-01-17T08:03:49.598Z,6.30
2018-01-17T08:04:49.600Z,6.10
2018-01-17T08:05:49.607Z,6.20
2018-01-17T08:06:49.599Z,6.60
2018-01-17T08:07:49.602Z,7.30
2018-01-17T08:08:49.601Z,7.80
2018-01-17T08:09:49.605Z,7.60
2018-01-17T08:10:49.600Z,7.20
2018-01-17T08:11:49.606Z,7.00
2018-01-17T08:12:49.601Z,6.30
2018-01-17T08:13:51.159Z,6.80
2018-01-17T08:14:52.152Z,7.70
2018-01-17T08:15:50.805Z,7.90
2018-01-17T08:16:49.607Z,7.80
2018-01-17T08:17:49.604Z,7.90
2018-01-17T08:18:49.608Z,7.50
2018-01-17T08:19:49.605Z,7.60
2018-01-17T08:20:49.614Z,7.80
2018-01-17T08:21:49.615Z,7.20
2018-01-17T08:22:49.609Z,8.10
2018-01-17T08:23:49.636Z,8.70
2018-01-17T08:24:49.606Z,8.00
2018-01-17T08:25:49.622Z,8.70
2018-01-17T08:26:49.611Z,8.60
2018-01-17T08:27:49.615Z,8.70
2018-01-17T08:28:49.616Z,8.60
2018-01-17T08:29:49.614Z,9.10
2018-01-17T08:30:49.611Z,8.80
2018-01-17T08:31:49.622Z,8.10
2018-01-17T08:32:49.609Z,8.60
2018-01-17T08:33:49.617Z,8.30
2018-01-17T08:34:49.610Z,9.00
2018-01-17T08:35:49.620Z,9.10
2018-01-17T08:36:49.614Z,8.90
2018-01-17T08:37:49.620Z,9.10
2018-01-17T08:38:49.623Z,9.70
2018-01-17T08:39:49.612Z,8.70
2018-01-17T08:40:49.617Z,9.40
2018-01-17T08:41:49.616Z,9.30
2018-01-17T08:42:49.614Z,10.20
2018-01-17T08:43:49.615Z,10.00
2018-01-17T08:44:49.625Z,9.00
2018-01-17T08:45:49.615Z,7.00
2018-01-17T08:46:49.614Z,7.00
2018-01-17T08:47:49.616Z,6.40
2018-01-17T08:48:49.624Z,5.40
2018-01-17T08:49:49.618Z,5.50
2018-01-17T08:50:49.619Z,6.20
2018-01-17T08:51:49.614Z,6.40
2018-01-17T08:52:49.615Z,5.40
2018-01-17T08:53:49.669Z,5.80
2018-01-17T08:54:49.611Z,6.50
2018-01-17T08:55:49.611Z,6.90
2018-01-17T08:56:49.623Z,7.20
2018-01-17T08:57:49.620Z,8.10
2018-01-17T08:58:49.616Z,7.90
2018-01-17T08:59:49.627Z,7.20
2018-01-17T09:00:49.629Z,6.80
2018-01-17T09:01:49.620Z,7.20
2018-01-17T09:02:49.614Z,7.20
2018-01-17T09:03:49.616Z,7.10
2018-01-17T09:04:49.628Z,6.80
2018-01-17T09:05:49.621Z,7.40
2018-01-17T09:06:49.615Z,7.30
2018-01-17T09:07:49.616Z,6.50
2018-01-17T09:08:49.623Z,6.90
2018-01-17T09:09:49.618Z,6.90
2018-01-17T09:10:49.611Z,7.50
2018-01-17T09:11:49.614Z,7.40
2018-01-17T09:12:49.674Z,7.90
2018-01-17T09:13:49.618Z,7.40
2018-01-17T09:14:49.624Z,7.00
2018-01-17T09:15:49.619Z,6.90
2018-01-17T09:16:49.624Z,7.10
2018-01-17T09:17:49.620Z,6.80
2018-01-17T09:18:49.627Z,6.60
2018-01-17T09:19:49.624Z,6.60
2018-01-17T09:20:49.633Z,7.10
2018-01-17T09:21:49.629Z,7.10
2018-01-17T09:22:49.632Z,6.70
2018-01-17T09:23:49.626Z,6.60
2018-01-17T09:24:49.628Z,7.00
2018-01-17T09:25:49.626Z,7.40
2018-01-17T09:26:49.629Z,7.20
2018-01-17T09:27:49.628Z,7.20
2018-01-17T09:28:49.675Z,6.30
2018-01-17T09:29:49.633Z,6.60
2018-01-17T09:30:49.629Z,6.30
2018-01-17T09:31:49.630Z,6.40
2018-01-17T09:32:49.633Z,6.30
2018-01-17T09:33:49.634Z,6.50
2018-01-17T09:34:49.630Z,6.20
2018-01-17T09:35:49.641Z,6.00
2018-01-17T09:36:49.636Z,5.70
2018-01-17T09:37:49.637Z,5.90
2018-01-17T09:38:49.639Z,5.20
2018-01-17T09:39:49.640Z,5.40
2018-01-17T09:40:49.638Z,4.90
2018-01-17T09:41:49.642Z,5.30
2018-01-17T09:42:49.639Z,5.00
2018-01-17T09:43:49.641Z,5.60
2018-01-17T09:44:49.639Z,5.00
2018-01-17T09:45:49.638Z,4.90
2018-01-17T09:46:49.643Z,5.00
2018-01-17T09:47:49.646Z,5.00
2018-01-17T09:48:49.642Z,5.10
2018-01-17T09:49:49.641Z,4.30
2018-01-17T09:50:49.649Z,4.40
2018-01-17T09:51:49.648Z,4.20
2018-01-17T09:52:49.655Z,4.60
2018-01-17T09:53:49.652Z,4.40
2018-01-17T09:54:49.655Z,4.30
2018-01-17T09:55:49.658Z,4.50
2018-01-17T09:56:49.658Z,4.10
2018-01-17T09:57:49.659Z,4.20
2018-01-17T09:58:49.674Z,4.40
2018-01-17T09:59:49.666Z,5.50
2018-01-17T10:00:49.670Z,4.70
2018-01-17T10:01:49.725Z,4.40
2018-01-17T10:02:50.298Z,4.10
2018-01-17T10:03:49.672Z,4.60
2018-01-17T10:04:49.674Z,4.60
2018-01-17T10:05:49.683Z,5.40
2018-01-17T10:06:49.677Z,4.50
2018-01-17T10:07:49.679Z,4.40
2018-01-17T10:08:49.683Z,4.50
2018-01-17T10:09:49.691Z,4.70
2018-01-17T10:10:49.684Z,4.90
2018-01-17T10:11:49.692Z,4.30
2018-01-17T10:12:49.694Z,4.80
2018-01-17T10:13:49.705Z,5.20
2018-01-17T10:14:49.690Z,4.50
2018-01-17T10:15:49.700Z,4.30
2018-01-17T10:16:49.715Z,4.50
2018-01-17T10:17:49.708Z,4.70
2018-01-17T10:18:49.709Z,4.50
2018-01-17T10:19:49.711Z,4.90
2018-01-17T10:20:49.719Z,4.70
2018-01-17T10:21:49.713Z,4.40
2018-01-17T10:22:49.726Z,4.50
2018-01-17T10:23:49.719Z,4.30
2018-01-17T10:24:49.717Z,4.10
2018-01-17T10:25:49.724Z,4.50
2018-01-17T10:26:49.727Z,4.40
2018-01-17T10:27:49.726Z,4.20
2018-01-17T10:28:49.743Z,3.90
2018-01-17T10:29:49.732Z,4.20
2018-01-17T10:30:49.734Z,3.90
2018-01-17T10:31:49.791Z,3.60
2018-01-17T10:32:49.739Z,3.70
2018-01-17T10:33:49.740Z,4.10
2018-01-17T10:34:49.745Z,3.30
2018-01-17T10:35:49.748Z,3.90
2018-01-17T10:36:49.755Z,3.40
2018-01-17T10:37:49.753Z,3.80
2018-01-17T10:38:49.758Z,4.10
2018-01-17T10:39:49.760Z,3.70
2018-01-17T10:40:49.765Z,3.80
2018-01-17T10:41:49.770Z,4.10
2018-01-17T10:42:49.768Z,4.00
2018-01-17T10:43:49.774Z,4.30
2018-01-17T10:44:49.774Z,4.00
2018-01-17T10:45:49.780Z,3.90
2018-01-17T10:46:49.782Z,4.10
2018-01-17T10:47:49.785Z,4.20
2018-01-17T10:48:49.790Z,4.00
2018-01-17T10:49:49.796Z,3.70
2018-01-17T10:50:49.801Z,3.70
2018-01-17T10:51:49.798Z,4.30
2018-01-17T10:52:49.805Z,4.20
2018-01-17T10:53:49.811Z,4.50
2018-01-17T10:54:49.807Z,4.70
2018-01-17T10:55:49.814Z,4.20
2018-01-17T10:56:49.935Z,4.50
2018-01-17T10:57:59.832Z,4.10
2018-01-17T10:58:49.824Z,4.00
2018-01-17T10:59:49.826Z,4.30
2018-01-17T11:00:49.829Z,3.90
2018-01-17T11:01:49.835Z,3.80
2018-01-17T11:02:49.835Z,4.00
2018-01-17T11:03:49.838Z,4.20
2018-01-17T11:04:49.846Z,3.60
2018-01-17T11:05:49.846Z,3.90
2018-01-17T11:06:49.847Z,4.20
2018-01-17T11:07:49.851Z,3.70
2018-01-17T11:08:49.859Z,3.90
2018-01-17T11:09:49.864Z,4.10
2018-01-17T11:10:49.864Z,4.00
2018-01-17T11:11:49.866Z,3.90
2018-01-17T11:12:49.870Z,4.10
2018-01-17T11:13:49.878Z,4.30
2018-01-17T11:14:49.885Z,4.10
2018-01-17T11:15:49.882Z,3.90
2018-01-17T11:16:49.884Z,4.20
2018-01-17T11:17:49.884Z,4.20
2018-01-17T11:18:49.889Z,4.20
2018-01-17T11:19:49.896Z,4.20
2018-01-17T11:20:49.895Z,4.40
2018-01-17T11:21:49.907Z,4.40
2018-01-17T11:22:49.898Z,4.40
2018-01-17T11:23:49.917Z,4.10
2018-01-17T11:24:49.904Z,3.60
2018-01-17T11:25:49.911Z,5.00
2018-01-17T11:26:49.910Z,9.50
2018-01-17T11:27:49.918Z,3.90
2018-01-17T11:28:49.918Z,4.10
2018-01-17T11:29:49.919Z,4.30
2018-01-17T11:30:49.922Z,4.30
2018-01-17T11:31:49.932Z,4.20
2018-01-17T11:32:49.927Z,4.40
2018-01-17T11:33:49.931Z,4.60
2018-01-17T11:34:49.929Z,4.30
2018-01-17T11:35:49.936Z,4.40
2018-01-17T11:36:49.936Z,4.50
2018-01-17T11:37:49.941Z,4.60
2018-01-17T11:38:49.943Z,4.80
2018-01-17T11:39:49.944Z,4.70
2018-01-17T11:40:49.947Z,3.80
2018-01-17T11:41:49.947Z,4.50
2018-01-17T11:42:49.952Z,4.20
2018-01-17T11:43:49.951Z,4.90
2018-01-17T11:44:49.969Z,4.70
2018-01-17T11:45:49.956Z,4.70
2018-01-17T11:46:49.961Z,4.60
2018-01-17T11:47:49.965Z,4.70
2018-01-17T11:48:49.958Z,4.80
2018-01-17T11:49:49.969Z,4.20
2018-01-17T11:50:49.966Z,5.10
2018-01-17T11:51:49.970Z,4.10
2018-01-17T11:52:49.978Z,4.60
2018-01-17T11:53:49.970Z,4.30
2018-01-17T11:54:49.968Z,4.60
2018-01-17T11:55:50.001Z,4.40
2018-01-17T11:56:49.975Z,4.50
2018-01-17T11:57:49.981Z,4.10
2018-01-17T11:58:49.978Z,3.90
2018-01-17T11:59:49.985Z,3.70
2018-01-17T12:00:49.987Z,4.50
2018-01-17T12:01:49.988Z,4.60
2018-01-17T12:02:49.986Z,4.10
2018-01-17T12:03:49.999Z,4.80
2018-01-17T12:04:49.994Z,4.80
2018-01-17T12:05:49.998Z,5.20
2018-01-17T12:06:49.996Z,3.90
2018-01-17T12:07:49.996Z,5.50
2018-01-17T12:08:50.003Z,4.70
2018-01-17T12:09:50.006Z,4.30
2018-01-17T12:10:50.007Z,4.50
2018-01-17T12:11:50.008Z,4.80
2018-01-17T12:12:50.049Z,3.90
2018-01-17T12:13:50.022Z,4.90
2018-01-17T12:14:50.015Z,4.60
2018-01-17T12:15:50.013Z,4.40
2018-01-17T12:16:50.019Z,4.60
2018-01-17T12:17:50.018Z,4.20
2018-01-17T12:18:50.021Z,4.40
2018-01-17T12:19:50.019Z,4.70
2018-01-17T12:20:50.027Z,4.60
2018-01-17T12:21:50.023Z,4.70
2018-01-17T12:22:50.029Z,4.50
2018-01-17T12:23:50.029Z,4.70
2018-01-17T12:24:50.034Z,5.00
2018-01-17T12:25:50.030Z,5.20
2018-01-17T12:26:50.031Z,4.60
2018-01-17T12:27:50.035Z,5.10
2018-01-17T12:28:50.036Z,4.80
2018-01-17T12:29:50.046Z,5.00
2018-01-17T12:30:50.039Z,5.60
2018-01-17T12:31:50.045Z,4.70
2018-01-17T12:32:50.043Z,5.40
2018-01-17T12:33:50.050Z,5.40
2018-01-17T12:34:50.043Z,5.10
2018-01-17T12:35:50.047Z,5.30
2018-01-17T12:36:50.050Z,5.20
2018-01-17T12:37:50.052Z,4.90
2018-01-17T12:38:50.059Z,5.90
2018-01-17T12:39:50.077Z,5.70
2018-01-17T12:40:50.072Z,5.60
2018-01-17T12:41:50.063Z,5.30
2018-01-17T12:42:50.063Z,5.80
2018-01-17T12:43:50.058Z,5.70
2018-01-17T12:44:50.059Z,5.10
2018-01-17T12:45:50.059Z,4.60
2018-01-17T12:46:50.062Z,5.30
2018-01-17T12:47:50.084Z,4.90
2018-01-17T12:48:50.068Z,5.10
2018-01-17T12:49:50.072Z,4.40
2018-01-17T12:50:50.069Z,5.10
2018-01-17T12:51:50.080Z,4.90
2018-01-17T12:52:50.075Z,4.20
2018-01-17T12:53:50.077Z,4.40
2018-01-17T12:54:50.072Z,4.20
2018-01-17T12:55:50.086Z,4.70
2018-01-17T12:56:50.077Z,4.70
2018-01-17T12:57:50.088Z,4.60
2018-01-17T12:58:50.080Z,4.40
2018-01-17T12:59:50.080Z,4.30
2018-01-17T13:00:50.081Z,4.20
2018-01-17T13:01:50.088Z,4.20
2018-01-17T13:02:50.082Z,4.60
2018-01-17T13:03:50.087Z,4.10
2018-01-17T13:04:50.087Z,4.70
2018-01-17T13:05:50.088Z,5.10
2018-01-17T13:06:50.091Z,5.00
2018-01-17T13:07:50.094Z,4.90
2018-01-17T13:08:50.089Z,5.20
2018-01-17T13:09:50.092Z,5.40
2018-01-17T13:10:50.097Z,6.50
2018-01-17T13:11:50.092Z,6.30
2018-01-17T13:12:50.100Z,6.60
2018-01-17T13:13:50.097Z,6.10
2018-01-17T13:14:50.098Z,6.00
2018-01-17T13:15:50.099Z,6.00